createdAt,value
2019-04-11T00:00:19.791Z,69
2019-04-11T00:00:51.991Z,69
2019-04-11T00:01:32.399Z,69
2019-04-11T00:01:54.669Z,69
2019-04-11T00:02:25.066Z,69
2019-04-11T00:02:55.546Z,68.9
2019-04-11T00:03:25.820Z,68.9
2019-04-11T00:04:44.450Z,69.3
2019-04-11T00:05:43.600Z,69.3
2019-04-11T00:06:42.228Z,69.2
2019-04-11T00:07:41.163Z,69.4
2019-04-11T00:08:40.091Z,69.4
2019-04-11T00:09:39.289Z,69.2
2019-04-11T00:10:39.339Z,69.1
2019-04-11T00:11:09.756Z,69.1
2019-04-11T00:11:39.237Z,68.9
2019-04-11T00:12:10.617Z,68.9
2019-04-11T00:13:36.768Z,70
2019-04-11T00:14:34.502Z,69.8
2019-04-11T00:15:33.505Z,70.1
2019-04-11T00:16:33.415Z,69.8
2019-04-11T00:17:32.381Z,69.7
2019-04-11T00:18:30.655Z,69.8
2019-04-11T00:19:29.755Z,69.7
2019-04-11T00:20:28.730Z,69.8
2019-04-11T00:21:28.744Z,69.9
2019-04-11T00:21:59.314Z,69.9
2019-04-11T00:23:26.271Z,70
2019-04-11T00:24:25.314Z,70
2019-04-11T00:25:23.540Z,70
2019-04-11T00:26:22.395Z,70.3
2019-04-11T00:27:21.500Z,70.4
2019-04-11T00:28:21.891Z,70.6
2019-04-11T00:29:20.765Z,70.3
2019-04-11T00:30:20.066Z,70.5
2019-04-11T00:31:17.511Z,70.7
2019-04-11T00:31:49.415Z,70.7
2019-04-11T00:32:19.360Z,70.4
2019-04-11T00:32:49.677Z,70.4
2019-04-11T00:33:19.954Z,70.1
2019-04-11T00:34:15.343Z,70.1
2019-04-11T00:35:13.726Z,70.1
2019-04-11T00:36:12.775Z,70.1
2019-04-11T00:37:12.917Z,69.9
2019-04-11T00:37:43.353Z,69.9
2019-04-11T00:38:14.074Z,69.9
2019-04-11T00:39:09.653Z,69.8
2019-04-11T00:40:09.275Z,69.6
2019-04-11T00:41:08.247Z,69.5
2019-04-11T00:42:06.722Z,69.6
2019-04-11T00:43:05.905Z,69.7
2019-04-11T00:44:04.834Z,69.9
2019-04-11T00:45:03.901Z,70
2019-04-11T00:46:04.327Z,70.4
2019-04-11T00:47:02.168Z,70.3
2019-04-11T00:47:33.423Z,70.3
2019-04-11T00:48:04.145Z,70.2
2019-04-11T00:48:33.799Z,70.2
2019-04-11T00:49:04.326Z,70.3
2019-04-11T00:49:59.122Z,70.8
2019-04-11T00:50:59.277Z,70.7
2019-04-11T00:51:56.877Z,70.7
2019-04-11T00:52:56.098Z,70.6
2019-04-11T00:53:55.461Z,70.5
2019-04-11T00:54:53.872Z,70.4
2019-04-11T00:55:53.874Z,70.4
2019-04-11T00:56:52.939Z,70.9
2019-04-11T00:57:23.323Z,70.9
2019-04-11T00:58:50.245Z,70.6
2019-04-11T00:59:49.202Z,70.4
2019-04-11T01:00:47.871Z,70.7
2019-04-11T01:01:47.361Z,70.3
2019-04-11T01:02:45.948Z,70.5
2019-04-11T01:03:45.694Z,70.9
2019-04-11T01:04:43.913Z,70.8
2019-04-11T01:05:42.800Z,70.9
2019-04-11T01:06:13.944Z,70.9
2019-04-11T01:06:44.353Z,70.6
2019-04-11T01:07:14.779Z,70.6
2019-04-11T01:07:44.253Z,70.7
2019-04-11T01:08:15.679Z,70.7
2019-04-11T01:09:40.132Z,71.4
2019-04-11T01:10:39.230Z,71.1
2019-04-11T01:11:39.053Z,70.9
2019-04-11T01:12:36.849Z,71.6
2019-04-11T01:13:51.700Z,71.4
2019-04-11T01:14:05.967Z,71.4
2019-04-11T01:14:38.627Z,72
2019-04-11T01:15:33.383Z,71.1
2019-04-11T01:16:03.520Z,71.1
2019-04-11T01:16:35.119Z,69.9
2019-04-11T01:17:07.758Z,69.9
2019-04-11T01:17:35.128Z,69.8
2019-04-11T01:18:05.886Z,69.8
2019-04-11T01:18:36.460Z,69.8
2019-04-11T01:19:06.937Z,69.8
2019-04-11T01:20:29.462Z,70.9
2019-04-11T01:21:27.066Z,69.8
2019-04-11T01:22:26.811Z,70
2019-04-11T01:23:25.207Z,69.9
2019-04-11T01:24:24.224Z,69.8
2019-04-11T01:25:24.614Z,69.9
2019-04-11T01:25:55.145Z,69.9
2019-04-11T01:26:26.994Z,70
2019-04-11T01:26:54.929Z,70
2019-04-11T01:27:25.989Z,69.9
2019-04-11T01:27:56.708Z,69.9
2019-04-11T01:28:27.094Z,70.4
2019-04-11T01:28:56.779Z,70.4
2019-04-11T01:29:27.591Z,70.2
2019-04-11T01:29:58.098Z,70.2
2019-04-11T01:31:17.997Z,70.6
2019-04-11T01:32:16.388Z,70.9
2019-04-11T01:33:16.017Z,70.8
2019-04-11T01:34:14.484Z,70.6
2019-04-11T01:35:13.574Z,70.3
2019-04-11T01:35:43.963Z,70.3
2019-04-11T01:36:15.365Z,70.7
2019-04-11T01:36:45.366Z,70.7
2019-04-11T01:37:15.851Z,70.2
2019-04-11T01:37:46.433Z,70.2
2019-04-11T01:38:16.763Z,70.1
2019-04-11T01:38:46.861Z,70.1
2019-04-11T01:39:17.064Z,70.1
2019-04-11T01:39:47.694Z,70.1
2019-04-11T01:41:07.491Z,71
2019-04-11T01:42:07.299Z,70.8
2019-04-11T01:43:06.301Z,70.3
2019-04-11T01:44:08.583Z,70.2
2019-04-11T01:45:03.559Z,70.6
2019-04-11T01:45:34.031Z,70.6
2019-04-11T01:46:05.917Z,70.7
2019-04-11T01:46:35.009Z,70.7
2019-04-11T01:47:05.310Z,70.5
2019-04-11T01:47:37.326Z,70.5
2019-04-11T01:48:07.317Z,70.6
2019-04-11T01:48:36.971Z,70.6
2019-04-11T01:49:08.344Z,70.4
2019-04-11T01:49:38.734Z,70.4
2019-04-11T01:50:57.397Z,70.6
2019-04-11T01:51:56.497Z,71
2019-04-11T01:52:55.488Z,71
2019-04-11T01:53:55.596Z,71.2
2019-04-11T01:54:54.433Z,71.4
2019-04-11T01:55:52.831Z,70.8
2019-04-11T01:56:23.479Z,70.8
2019-04-11T01:56:53.998Z,71
2019-04-11T01:57:24.264Z,71
2019-04-11T01:57:54.533Z,71.1
2019-04-11T01:58:24.897Z,71.1
2019-04-11T01:58:55.561Z,71.3
2019-04-11T01:59:26.977Z,71.3
2019-04-11T02:00:49.057Z,70.8
2019-04-11T02:01:47.508Z,70.7
2019-04-11T02:02:46.719Z,70.9
2019-04-11T02:03:45.840Z,70.8
2019-04-11T02:04:44.224Z,71
2019-04-11T02:05:43.527Z,71.1
2019-04-11T02:06:42.575Z,71.5
2019-04-11T02:07:12.482Z,71.5
2019-04-11T02:07:42.928Z,71.5
2019-04-11T02:08:13.516Z,71.5
2019-04-11T02:08:44.086Z,71.4
2019-04-11T02:09:14.079Z,71.4
2019-04-11T02:10:37.442Z,71.5
2019-04-11T02:11:37.543Z,71.3
2019-04-11T02:12:35.643Z,71.3
2019-04-11T02:13:34.463Z,71.5
2019-04-11T02:14:33.708Z,71.3
2019-04-11T02:15:32.701Z,71.3
2019-04-11T02:17:31.000Z,71.2
2019-04-11T02:18:01.629Z,71.2
2019-04-11T02:18:32.023Z,70.9
2019-04-11T02:19:01.933Z,70.9
2019-04-11T02:19:32.457Z,71.3
2019-04-11T02:20:03.075Z,71.3
2019-04-11T02:20:33.650Z,71.1
2019-04-11T02:21:27.703Z,71
2019-04-11T02:22:26.194Z,71.6
2019-04-11T02:23:24.488Z,71.2
2019-04-11T02:24:23.996Z,71.2
2019-04-11T02:25:22.962Z,71.5
2019-04-11T02:26:21.485Z,70.9
2019-04-11T02:27:21.314Z,71.1
2019-04-11T02:27:50.822Z,71.1
2019-04-11T02:28:20.757Z,71.1
2019-04-11T02:28:51.199Z,71.1
2019-04-11T02:29:21.665Z,71.4
2019-04-11T02:29:52.936Z,71.4
2019-04-11T02:30:23.158Z,72.3
2019-04-11T02:30:56.188Z,72.3
2019-04-11T02:31:23.791Z,71.8
2019-04-11T02:32:18.199Z,71.7
2019-04-11T02:33:18.439Z,71.7
2019-04-11T02:33:44.650Z,71.7
2019-04-11T02:34:16.303Z,72.6
2019-04-11T02:35:15.529Z,71.7
2019-04-11T02:36:13.817Z,71.9
2019-04-11T02:37:10.203Z,71.7
2019-04-11T02:38:12.351Z,71.4
2019-04-11T02:38:41.448Z,71.4
2019-04-11T02:39:19.172Z,71.3
2019-04-11T02:39:42.707Z,71.3
2019-04-11T02:40:13.428Z,71
2019-04-11T02:40:43.080Z,71
2019-04-11T02:41:14.333Z,71.6
2019-04-11T02:42:08.784Z,71.5
2019-04-11T02:43:07.789Z,71.2
2019-04-11T02:43:40.069Z,71.2
2019-04-11T02:44:28.963Z,71.4
2019-04-11T02:46:20.365Z,71.4
2019-04-11T02:47:25.205Z,71.4
2019-04-11T02:47:51.635Z,71.4
2019-04-11T02:48:20.395Z,71.4
2019-04-11T02:49:02.973Z,72
2019-04-11T02:49:28.705Z,72
2019-04-11T02:50:00.000Z,71.9
2019-04-11T02:50:58.356Z,71.6
2019-04-11T02:51:56.337Z,71.8
2019-04-11T02:52:54.301Z,72.1
2019-04-11T02:53:28.144Z,72.1
2019-04-11T02:54:54.400Z,72.7
2019-04-11T02:55:54.015Z,71.9
2019-04-11T02:56:54.540Z,72.3
2019-04-11T02:57:50.847Z,72.3
2019-04-11T02:58:50.108Z,72.4
2019-04-11T02:59:21.390Z,72.4
2019-04-11T02:59:49.464Z,72.8
2019-04-11T03:00:46.167Z,72.7
2019-04-11T03:01:48.429Z,72.4
2019-04-11T03:02:44.847Z,72.3
2019-04-11T03:03:17.249Z,72.3
2019-04-11T03:03:47.349Z,72.1
2019-04-11T03:04:16.976Z,72.1
2019-04-11T03:05:44.090Z,72
2019-04-11T03:06:43.688Z,72.2
2019-04-11T03:07:42.153Z,72.3
2019-04-11T03:08:41.471Z,72.6
2019-04-11T03:09:39.248Z,72.1
2019-04-11T03:10:37.950Z,72.2
2019-04-11T03:11:35.368Z,72.9
2019-04-11T03:12:38.122Z,72.6
2019-04-11T03:13:05.266Z,72.6
2019-04-11T03:13:37.477Z,73.1
2019-04-11T03:14:07.443Z,73.1
2019-04-11T03:15:14.096Z,72.3
2019-04-11T03:17:02.237Z,72.3
2019-04-11T03:17:48.021Z,72.3
2019-04-11T03:18:45.275Z,72.3
2019-04-11T03:20:31.095Z,72.3
2019-04-11T03:21:21.536Z,72.3
2019-04-11T03:21:47.457Z,72.3
2019-04-11T03:22:26.910Z,73
2019-04-11T03:23:04.968Z,73
2019-04-11T03:23:27.831Z,73.1
2019-04-11T03:23:58.592Z,73.1
2019-04-11T03:24:30.978Z,73.4
2019-04-11T03:25:00.293Z,73.4
2019-04-11T03:26:21.800Z,73.2
2019-04-11T03:27:22.208Z,73.3
2019-04-11T03:27:51.712Z,73.3
2019-04-11T03:28:29.919Z,73.2
2019-04-11T03:28:57.300Z,73.2
2019-04-11T03:29:20.672Z,73.4
2019-04-11T03:30:35.654Z,73.3
2019-04-11T03:39:55.981Z,73.9
2019-04-11T03:41:58.770Z,73.9
2019-04-11T03:43:48.430Z,73.9
2019-04-11T03:44:50.621Z,73.9
2019-04-11T03:47:15.970Z,73.9
2019-04-11T03:49:03.357Z,73.9
2019-04-11T03:50:13.430Z,73.9
2019-04-11T03:50:39.355Z,73.9
2019-04-11T03:51:06.459Z,74.7
2019-04-11T03:51:55.746Z,74.6
2019-04-11T03:52:26.088Z,74.6
2019-04-11T03:53:00.077Z,74.7
2019-04-11T03:53:29.961Z,74.7
2019-04-11T03:53:58.885Z,74.8
2019-04-11T03:54:26.203Z,74.8
2019-04-11T03:55:00.427Z,74.9
2019-04-11T03:55:31.920Z,74.9
2019-04-11T03:56:51.150Z,74.6
2019-04-11T03:57:19.329Z,74.6
2019-04-11T03:57:54.161Z,74.6
2019-04-11T03:58:22.172Z,74.6
2019-04-11T03:58:50.617Z,74.8
2019-04-11T03:59:47.724Z,74.3
2019-04-11T04:00:46.616Z,74.6
2019-04-11T04:01:46.552Z,74.4
2019-04-11T04:02:16.973Z,74.4
2019-04-11T04:02:46.567Z,74.5
2019-04-11T04:03:15.458Z,74.5
2019-04-11T04:03:48.822Z,74.7
2019-04-11T04:04:21.699Z,74.7
2019-04-11T04:04:49.162Z,74.6
2019-04-11T04:05:18.379Z,74.6
2019-04-11T04:06:41.325Z,74.8
2019-04-11T04:07:12.893Z,74.8
2019-04-11T04:07:40.698Z,74.6
2019-04-11T04:08:39.189Z,74.6
2019-04-11T04:09:39.607Z,74.8
2019-04-11T04:10:36.385Z,74.7
2019-04-11T04:11:35.085Z,74.5
2019-04-11T04:12:35.604Z,74.8
2019-04-11T04:13:09.714Z,74.8
2019-04-11T04:13:36.626Z,74.9
2019-04-11T04:14:04.691Z,74.9
2019-04-11T04:14:36.909Z,74.4
2019-04-11T04:15:10.693Z,74.4
2019-04-11T04:16:38.436Z,74.4
2019-04-11T04:17:06.426Z,74.4
2019-04-11T04:17:34.982Z,74.6
2019-04-11T04:18:27.934Z,75
2019-04-11T04:19:32.276Z,75.2
2019-04-11T04:20:26.749Z,75.1
2019-04-11T04:21:26.457Z,74.8
2019-04-11T04:22:24.955Z,74.6
2019-04-11T04:23:21.825Z,74.2
2019-04-11T04:23:54.520Z,74.2
2019-04-11T04:24:23.151Z,74.3
2019-04-11T04:24:55.897Z,74.3
2019-04-11T04:26:19.851Z,74.5
2019-04-11T04:27:17.562Z,74.1
2019-04-11T04:28:16.318Z,74.1
2019-04-11T04:29:15.739Z,74.2
2019-04-11T04:30:18.143Z,74.3
2019-04-11T04:30:47.141Z,74.3
2019-04-11T04:31:18.290Z,74.8
2019-04-11T04:32:14.101Z,75.1
2019-04-11T04:33:14.409Z,74.9
2019-04-11T04:33:43.149Z,74.9
2019-04-11T04:34:11.859Z,75
2019-04-11T04:34:44.299Z,75
2019-04-11T04:35:20.984Z,75.1
2019-04-11T04:35:45.144Z,75.1
2019-04-11T04:36:17.719Z,75.2
2019-04-11T04:36:44.094Z,75.2
2019-04-11T04:37:17.931Z,75
2019-04-11T04:37:47.454Z,75
2019-04-11T04:38:15.977Z,75.3
2019-04-11T04:39:06.138Z,74.9
2019-04-11T04:39:39.610Z,74.9
2019-04-11T04:40:44.570Z,75.1
2019-04-11T04:42:03.543Z,75.1
2019-04-11T04:42:54.414Z,75.1
2019-04-11T04:43:18.529Z,75.1
2019-04-11T04:44:01.952Z,75.2
2019-04-11T04:44:33.304Z,75.2
2019-04-11T04:45:04.802Z,75
2019-04-11T04:46:11.286Z,75
2019-04-11T04:47:46.811Z,75
2019-04-11T04:48:25.103Z,75
2019-04-11T04:48:51.379Z,75
2019-04-11T04:49:18.937Z,75
2019-04-11T04:49:54.678Z,75.2
2019-04-11T04:50:26.633Z,75.2
2019-04-11T04:51:02.993Z,75.1
2019-04-11T04:51:28.668Z,75.1
2019-04-11T04:51:56.453Z,74.5
2019-04-11T04:52:53.447Z,75.1
2019-04-11T04:53:52.000Z,74.8
2019-04-11T04:54:49.396Z,75
2019-04-11T04:55:50.609Z,74.8
2019-04-11T04:56:47.617Z,74.7
2019-04-11T04:57:45.839Z,74.6
2019-04-11T04:58:48.077Z,74.6
2019-04-11T04:59:16.647Z,74.6
2019-04-11T05:00:45.358Z,74.4
2019-04-11T05:01:14.940Z,74.4
2019-04-11T05:01:47.661Z,74.3
2019-04-11T05:02:44.036Z,74.4
2019-04-11T05:04:40.477Z,74.5
2019-04-11T05:05:38.924Z,74.1
2019-04-11T05:06:36.838Z,73.6
2019-04-11T05:07:42.809Z,73.8
2019-04-11T05:08:35.276Z,73.8
2019-04-11T05:09:04.694Z,73.8
2019-04-11T05:09:37.956Z,73.9
2019-04-11T05:10:09.067Z,73.9
2019-04-11T05:11:31.490Z,73.7
2019-04-11T05:12:30.882Z,73.7
2019-04-11T05:13:32.187Z,74.3
2019-04-11T05:14:31.417Z,74.4
2019-04-11T05:15:28.540Z,74.8
2019-04-11T05:16:26.130Z,74.3
2019-04-11T05:17:28.882Z,74.3
2019-04-11T05:18:24.322Z,74.2
2019-04-11T05:18:55.067Z,74.2
2019-04-11T05:19:27.354Z,73.4
2019-04-11T05:19:56.688Z,73.4
2019-04-11T05:20:25.581Z,73.3
2019-04-11T05:20:57.217Z,73.3
2019-04-11T05:22:20.048Z,73.9
2019-04-11T05:23:19.469Z,74.3
2019-04-11T05:24:18.955Z,74.1
2019-04-11T05:25:18.088Z,73.9
2019-04-11T05:26:17.517Z,74
2019-04-11T05:27:15.022Z,74.3
2019-04-11T05:28:14.285Z,73.4
2019-04-11T05:28:45.581Z,73.4
2019-04-11T05:29:15.485Z,73.3
2019-04-11T05:29:46.156Z,73.3
2019-04-11T05:30:16.962Z,73.9
2019-04-11T05:30:46.486Z,73.9
2019-04-11T05:31:16.835Z,73.2
2019-04-11T05:31:47.299Z,73.2
2019-04-11T05:33:09.848Z,73
2019-04-11T05:34:08.117Z,72.2
2019-04-11T05:35:07.237Z,72.9
2019-04-11T05:36:06.215Z,72.7
2019-04-11T05:37:04.774Z,72.8
2019-04-11T05:38:05.137Z,72.8
2019-04-11T05:38:34.324Z,72.8
2019-04-11T05:39:04.835Z,73
2019-04-11T05:39:36.217Z,73
2019-04-11T05:40:07.447Z,72.9
2019-04-11T05:40:37.654Z,72.9
2019-04-11T05:41:13.815Z,73.3
2019-04-11T05:41:41.981Z,73.3
2019-04-11T05:42:59.905Z,71.8
2019-04-11T05:44:05.260Z,72.8
2019-04-11T05:44:28.778Z,72.8
2019-04-11T05:44:59.448Z,72.5
2019-04-11T05:45:58.209Z,72.4
2019-04-11T05:47:02.523Z,72.4
2019-04-11T05:47:57.956Z,72
2019-04-11T05:48:28.588Z,72
2019-04-11T05:49:00.732Z,72.4
2019-04-11T05:49:26.214Z,72.4
2019-04-11T05:49:56.768Z,71.7
2019-04-11T05:50:26.665Z,71.7
2019-04-11T05:50:56.843Z,71.7
2019-04-11T05:51:36.706Z,71.7
2019-04-11T05:52:00.355Z,71.4
2019-04-11T05:52:34.017Z,71.4
2019-04-11T05:53:54.139Z,71.8
2019-04-11T05:54:51.002Z,71.4
2019-04-11T05:55:47.563Z,71.5
2019-04-11T05:56:53.850Z,71.3
2019-04-11T05:57:44.744Z,71.7
2019-04-11T05:58:15.935Z,71.7
2019-04-11T05:58:47.849Z,72.1
2019-04-11T05:59:18.459Z,72.1
2019-04-11T05:59:53.049Z,71.6
2019-04-11T06:00:16.172Z,71.6
2019-04-11T06:00:46.906Z,71.6
2019-04-11T06:01:17.988Z,71.6
2019-04-11T06:01:47.013Z,72.2
2019-04-11T06:02:17.529Z,72.2
2019-04-11T06:03:45.263Z,71.4
2019-04-11T06:04:13.055Z,71.4
2019-04-11T06:04:38.060Z,71.7
2019-04-11T06:05:38.859Z,72
2019-04-11T06:06:40.607Z,71.7
2019-04-11T06:07:33.423Z,72.6
2019-04-11T06:08:32.660Z,72.2
2019-04-11T06:09:03.958Z,72.2
2019-04-11T06:09:39.785Z,71.6
2019-04-11T06:10:11.407Z,71.6
2019-04-11T06:10:34.137Z,71.5
2019-04-11T06:11:06.482Z,71.5
2019-04-11T06:12:28.211Z,72
2019-04-11T06:13:27.250Z,71.7
2019-04-11T06:14:27.353Z,71.5
2019-04-11T06:15:25.393Z,71.9
2019-04-11T06:16:43.465Z,71
2019-04-11T06:17:01.125Z,71
2019-04-11T06:17:30.873Z,70.8
2019-04-11T06:18:34.278Z,70.6
2019-04-11T06:18:52.686Z,70.6
2019-04-11T06:19:23.215Z,70.5
2019-04-11T06:19:53.841Z,70.5
2019-04-11T06:20:25.548Z,71.1
2019-04-11T06:20:55.593Z,71.1
2019-04-11T06:22:20.005Z,71.3
2019-04-11T06:23:17.016Z,72
2019-04-11T06:24:16.612Z,70.8
2019-04-11T06:25:19.209Z,71.8
2019-04-11T06:26:14.907Z,70.8
2019-04-11T06:27:15.736Z,71.1
2019-04-11T06:28:12.229Z,71.4
2019-04-11T06:29:23.172Z,72
2019-04-11T06:29:41.759Z,72
2019-04-11T06:30:12.654Z,70.3
2019-04-11T06:30:42.660Z,70.3
2019-04-11T06:32:08.270Z,71.1
2019-04-11T06:33:07.971Z,71.4
2019-04-11T06:34:07.413Z,70.5
2019-04-11T06:35:06.256Z,69.7
2019-04-11T06:36:04.549Z,70.3
2019-04-11T06:37:03.865Z,70.6
2019-04-11T06:38:02.950Z,70.6
2019-04-11T06:39:01.031Z,70.6
2019-04-11T06:40:02.407Z,69.9
2019-04-11T06:40:30.282Z,69.9
2019-04-11T06:41:02.206Z,70.1
2019-04-11T06:41:32.654Z,70.1
2019-04-11T06:42:05.846Z,70.7
2019-04-11T06:42:32.458Z,70.7
2019-04-11T06:43:03.899Z,70.2
2019-04-11T06:43:56.663Z,70.1
2019-04-11T06:44:56.327Z,69.6
2019-04-11T06:45:54.680Z,70
2019-04-11T06:47:00.551Z,70.2
2019-04-11T06:47:23.403Z,70.2
2019-04-11T06:47:53.855Z,70.5
2019-04-11T06:48:51.024Z,69.8
2019-04-11T06:49:51.241Z,70.1
2019-04-11T06:50:20.733Z,70.1
2019-04-11T06:50:51.584Z,71
2019-04-11T06:51:22.308Z,71
2019-04-11T06:51:55.022Z,70.8
2019-04-11T06:52:47.119Z,70.9
2019-04-11T06:53:46.202Z,70.7
2019-04-11T06:54:45.705Z,70.4
2019-04-11T06:55:15.203Z,70.4
2019-04-11T06:55:47.081Z,69.3
2019-04-11T06:56:17.130Z,69.3
2019-04-11T06:56:47.857Z,70.2
2019-04-11T06:57:18.324Z,70.2
2019-04-11T06:57:48.372Z,70
2019-04-11T06:58:40.824Z,69.2
2019-04-11T06:59:40.925Z,69.9
2019-04-11T07:00:39.379Z,68.9
2019-04-11T07:01:38.700Z,69.5
2019-04-11T07:02:37.183Z,68.8
2019-04-11T07:03:36.482Z,69
2019-04-11T07:04:36.057Z,68.6
2019-04-11T07:05:06.334Z,68.6
2019-04-11T07:05:35.622Z,69.5
2019-04-11T07:06:07.295Z,69.5
2019-04-11T07:06:37.989Z,68.4
2019-04-11T07:07:08.504Z,68.4
2019-04-11T07:07:38.155Z,69.1
2019-04-11T07:08:30.724Z,69.2
2019-04-11T07:09:31.199Z,69.1
2019-04-11T07:10:28.970Z,69.7
2019-04-11T07:11:28.082Z,69.5
2019-04-11T07:12:27.072Z,69.6
2019-04-11T07:13:25.660Z,69.2
2019-04-11T07:14:25.044Z,69
2019-04-11T07:14:55.496Z,69
2019-04-11T07:15:27.472Z,68.7
2019-04-11T07:15:57.200Z,68.7
2019-04-11T07:18:21.123Z,68.2
2019-04-11T07:20:19.046Z,67.4
2019-04-11T07:21:19.290Z,67.6
2019-04-11T07:22:17.691Z,66.8
2019-04-11T07:23:16.066Z,67.2
2019-04-11T07:24:16.290Z,67.1
2019-04-11T07:24:45.643Z,67.1
2019-04-11T07:25:16.340Z,67.2
2019-04-11T07:25:47.676Z,67.2
2019-04-11T07:26:17.072Z,67.6
2019-04-11T07:26:48.208Z,67.6
2019-04-11T07:28:10.981Z,66.1
2019-04-11T07:29:10.268Z,66.5
2019-04-11T07:30:09.633Z,66.8
2019-04-11T07:31:08.132Z,65.3
2019-04-11T07:32:07.218Z,66
2019-04-11T07:33:06.316Z,66.4
2019-04-11T07:34:06.435Z,65.2
2019-04-11T07:34:39.648Z,65.2
2019-04-11T07:35:05.652Z,65.6
2019-04-11T07:35:36.081Z,65.6
2019-04-11T07:36:08.255Z,65.2
2019-04-11T07:36:38.618Z,65.2
2019-04-11T07:37:07.681Z,65.3
2019-04-11T07:37:40.526Z,65.3
2019-04-11T07:39:00.147Z,64.8
2019-04-11T07:40:00.657Z,64.9
2019-04-11T07:41:00.554Z,65
2019-04-11T07:41:58.314Z,64.7
2019-04-11T07:43:08.684Z,65.1
2019-04-11T07:43:56.451Z,64.8
2019-04-11T07:44:30.473Z,64.8
2019-04-11T07:44:57.548Z,64.6
2019-04-11T07:45:26.927Z,64.6
2019-04-11T07:45:58.487Z,64.5
2019-04-11T07:46:29.145Z,64.5
2019-04-11T07:46:58.541Z,64.3
2019-04-11T07:47:29.751Z,64.3
2019-04-11T07:47:58.933Z,64.2
2019-04-11T07:48:29.505Z,64.2
2019-04-11T07:49:54.030Z,64.6
2019-04-11T07:50:21.384Z,64.6
2019-04-11T07:50:53.975Z,63.7
2019-04-11T07:51:48.866Z,64.7
2019-04-11T07:52:47.085Z,64.9
2019-04-11T07:53:46.264Z,64.7
2019-04-11T07:54:16.208Z,64.7
2019-04-11T07:54:48.053Z,63.8
2019-04-11T07:55:17.227Z,63.8
2019-04-11T07:55:47.803Z,63.9
2019-04-11T07:56:18.934Z,63.9
2019-04-11T07:56:48.883Z,63.5
2019-04-11T07:57:19.656Z,63.5
2019-04-11T07:57:49.303Z,62.7
2019-04-11T07:58:19.715Z,62.7
2019-04-11T07:59:39.989Z,63.4
2019-04-11T08:00:48.978Z,62.4
2019-04-11T08:01:08.868Z,62.4
2019-04-11T08:01:40.118Z,62.3
2019-04-11T08:02:37.924Z,62.7
2019-04-11T08:03:35.922Z,62.5
2019-04-11T08:04:34.651Z,62.3
2019-04-11T08:05:04.943Z,62.3
2019-04-11T08:05:36.518Z,62.5
2019-04-11T08:06:05.603Z,62.5
2019-04-11T08:06:37.313Z,59.8
2019-04-11T08:07:06.848Z,59.8
2019-04-11T08:07:38.182Z,60.6
2019-04-11T08:08:10.931Z,60.6
2019-04-11T08:09:31.174Z,60.2
2019-04-11T08:10:29.642Z,59.6
2019-04-11T08:11:28.017Z,59.5
2019-04-11T08:12:27.892Z,61.2
2019-04-11T08:13:26.557Z,59.8
2019-04-11T08:14:24.814Z,60.5
2019-04-11T08:14:55.351Z,60.5
2019-04-11T08:15:26.114Z,60.2
2019-04-11T08:15:56.291Z,60.2
2019-04-11T08:16:27.013Z,61.5
2019-04-11T08:16:57.650Z,61.5
2019-04-11T08:17:41.701Z,60.5
2019-04-11T08:17:57.940Z,60.5
2019-04-11T08:19:21.167Z,60.2
2019-04-11T08:20:19.698Z,60.6
2019-04-11T08:21:18.262Z,60.9
2019-04-11T08:22:17.308Z,61.6
2019-04-11T08:23:16.445Z,61.2
2019-04-11T08:24:16.548Z,61.4
2019-04-11T08:25:15.292Z,59.8
2019-04-11T08:25:45.523Z,59.8
2019-04-11T08:26:15.070Z,60.8
2019-04-11T08:26:46.609Z,60.8
2019-04-11T08:27:15.890Z,60.1
2019-04-11T08:28:00.569Z,60.1
2019-04-11T08:29:15.916Z,59.3
2019-04-11T08:30:10.966Z,59.3
2019-04-11T08:31:08.460Z,59.3
2019-04-11T08:32:07.555Z,58.3
2019-04-11T08:33:09.054Z,59.6
2019-04-11T08:34:07.151Z,57.7
2019-04-11T08:35:04.447Z,58.2
2019-04-11T08:36:03.646Z,58.4
2019-04-11T08:36:34.083Z,58.4
2019-04-11T08:37:05.600Z,57.7
2019-04-11T08:37:35.932Z,57.7
2019-04-11T08:38:05.649Z,57.4
2019-04-11T08:38:36.692Z,57.4
2019-04-11T08:39:07.176Z,57.8
2019-04-11T08:39:59.959Z,56.5
2019-04-11T08:41:59.249Z,56.2
2019-04-11T08:42:57.280Z,54.6
2019-04-11T08:43:55.948Z,55.6
2019-04-11T08:44:54.979Z,55.5
2019-04-11T08:45:54.401Z,55.3
2019-04-11T08:46:24.133Z,55.3
2019-04-11T08:46:54.403Z,55.6
2019-04-11T08:47:24.804Z,55.6
2019-04-11T08:47:58.923Z,55.6
2019-04-11T08:48:26.890Z,55.6
2019-04-11T08:48:57.634Z,57.3
2019-04-11T08:49:50.486Z,56.8
2019-04-11T08:50:50.693Z,56.8
2019-04-11T08:51:49.819Z,56.4
2019-04-11T08:52:22.423Z,56.4
2019-04-11T08:52:49.520Z,57
2019-04-11T08:53:46.285Z,55.9
2019-04-11T08:54:46.204Z,55.7
2019-04-11T08:55:57.038Z,55.4
2019-04-11T08:57:42.956Z,55.8
2019-04-11T08:58:41.783Z,56.7
2019-04-11T08:59:42.001Z,55.3
2019-04-11T09:00:40.486Z,55.4
2019-04-11T09:01:38.699Z,54.5
2019-04-11T09:02:09.070Z,54.5
2019-04-11T09:02:40.772Z,54.8
2019-04-11T09:03:09.732Z,54.8
2019-04-11T09:03:40.464Z,56.7
2019-04-11T09:04:36.753Z,56.6
2019-04-11T09:05:35.752Z,55.8
2019-04-11T09:06:34.125Z,56.2
2019-04-11T09:07:34.078Z,56.3
2019-04-11T09:08:32.584Z,55.9
2019-04-11T09:09:31.823Z,54.7
2019-04-11T09:10:30.259Z,55.5
2019-04-11T09:11:30.816Z,54.6
2019-04-11T09:12:00.759Z,54.6
2019-04-11T09:12:31.110Z,54.3
2019-04-11T09:13:01.329Z,54.3
2019-04-11T09:14:26.713Z,53.8
2019-04-11T09:15:26.922Z,54.3
2019-04-11T09:16:25.995Z,54
2019-04-11T09:17:24.057Z,52.4
2019-04-11T09:18:23.091Z,53.7
2019-04-11T09:19:23.258Z,51.9
2019-04-11T09:20:21.735Z,51.8
2019-04-11T09:21:20.571Z,51.9
2019-04-11T09:21:51.124Z,51.9
2019-04-11T09:22:22.442Z,52.4
2019-04-11T09:22:51.816Z,52.4
2019-04-11T09:23:22.283Z,52.8
2019-04-11T09:23:52.683Z,52.8
2019-04-11T09:25:16.344Z,52.2
2019-04-11T09:26:16.269Z,50.7
2019-04-11T09:27:14.612Z,51.8
2019-04-11T09:28:13.682Z,51.8
2019-04-11T09:29:13.775Z,51.8
2019-04-11T09:30:15.643Z,50.2
2019-04-11T09:31:15.344Z,52
2019-04-11T09:31:43.507Z,52
2019-04-11T09:32:12.102Z,48.3
2019-04-11T09:32:42.773Z,48.3
2019-04-11T09:33:13.206Z,48.9
2019-04-11T09:33:44.814Z,48.9
2019-04-11T09:35:08.520Z,48.4
2019-04-11T09:36:06.188Z,48.6
2019-04-11T09:37:05.535Z,48.8
2019-04-11T09:38:04.670Z,50.4
2019-04-11T09:39:04.526Z,49.9
2019-04-11T09:40:02.167Z,50.9
2019-04-11T09:41:01.686Z,51.1
2019-04-11T09:41:32.560Z,51.1
2019-04-11T09:42:03.319Z,52.2
2019-04-11T09:42:34.482Z,52.2
2019-04-11T09:43:04.142Z,50.5
2019-04-11T09:43:34.239Z,50.5
2019-04-11T09:44:04.568Z,49.2
2019-04-11T09:44:35.141Z,49.2
2019-04-11T09:45:57.911Z,51.2
2019-04-11T09:46:57.280Z,52.6
2019-04-11T09:48:14.674Z,52.5
2019-04-11T09:48:26.582Z,52.5
2019-04-11T09:48:56.595Z,52.3
2019-04-11T09:49:54.081Z,53
2019-04-11T09:50:52.908Z,50.4
2019-04-11T09:51:23.717Z,50.4
2019-04-11T09:51:53.210Z,52.4
2019-04-11T09:52:23.456Z,52.4
2019-04-11T09:52:55.932Z,52.4
2019-04-11T09:53:24.432Z,52.4
2019-04-11T09:53:55.182Z,51.1
2019-04-11T09:54:26.448Z,51.1
2019-04-11T09:54:57.012Z,51.1
2019-04-11T09:55:26.299Z,51.1
2019-04-11T09:56:47.451Z,52
2019-04-11T09:57:46.433Z,53.1
2019-04-11T09:58:45.041Z,52
2019-04-11T09:59:43.929Z,52.4
2019-04-11T10:00:43.443Z,52.7
2019-04-11T10:01:13.417Z,52.7
2019-04-11T10:01:43.656Z,52
2019-04-11T10:02:14.747Z,52
2019-04-11T10:02:45.895Z,53.8
2019-04-11T10:03:15.658Z,53.8
2019-04-11T10:03:45.596Z,52.3
2019-04-11T10:04:17.024Z,52.3
2019-04-11T10:04:48.001Z,53.2
2019-04-11T10:05:18.399Z,53.2
2019-04-11T10:06:39.077Z,52.5
2019-04-11T10:07:37.965Z,53.1
2019-04-11T10:08:37.188Z,53.9
2019-04-11T10:09:35.972Z,53.8
2019-04-11T10:10:35.491Z,53.6
2019-04-11T10:11:34.393Z,53.6
2019-04-11T10:12:04.793Z,53.6
2019-04-11T10:12:34.249Z,53.1
2019-04-11T10:13:04.962Z,53.1
2019-04-11T10:13:37.044Z,53.1
2019-04-11T10:14:05.580Z,53.1
2019-04-11T10:14:35.997Z,53.2
2019-04-11T10:15:07.437Z,53.2
2019-04-11T10:16:28.703Z,53.8
2019-04-11T10:17:27.746Z,54
2019-04-11T10:18:38.471Z,54
2019-04-11T10:19:25.896Z,53.6
2019-04-11T10:20:24.814Z,54.7
2019-04-11T10:21:25.967Z,54.1
2019-04-11T10:22:23.030Z,54.5
2019-04-11T10:22:54.718Z,54.5
2019-04-11T10:23:25.276Z,53.6
2019-04-11T10:23:54.257Z,53.6
2019-04-11T10:24:26.249Z,54
2019-04-11T10:24:55.112Z,54
2019-04-11T10:26:20.516Z,51.9
2019-04-11T10:27:18.530Z,53
2019-04-11T10:28:17.672Z,53.5
2019-04-11T10:29:17.424Z,53.1
2019-04-11T10:30:15.531Z,52.7
2019-04-11T10:31:15.004Z,52
2019-04-11T10:32:15.154Z,51.6
2019-04-11T10:33:13.252Z,51.3
2019-04-11T10:33:43.124Z,51.3
2019-04-11T10:34:13.630Z,53.2
2019-04-11T10:34:44.156Z,53.2
2019-04-11T10:36:10.759Z,51.4
2019-04-11T10:37:10.007Z,52.1
2019-04-11T10:38:08.799Z,50.7
2019-04-11T10:39:07.471Z,51.3
2019-04-11T10:40:06.450Z,51.6
2019-04-11T10:41:06.610Z,51.2